createdAt,value
2018-12-07T00:00:10.890Z,2.8
2018-12-07T00:01:23.005Z,1.8
2018-12-07T00:02:35.429Z,1.9
2018-12-07T00:03:47.455Z,2.2
2018-12-07T00:04:59.605Z,1.9
2018-12-07T00:06:11.887Z,1.8
2018-12-07T00:07:23.978Z,1.5
2018-12-07T00:08:36.265Z,1.6
2018-12-07T00:09:48.444Z,2.1
2018-12-07T00:11:00.753Z,1.8
2018-12-07T00:12:12.926Z,2.4
2018-12-07T00:13:25.012Z,2.1
2018-12-07T00:14:37.199Z,3.5
2018-12-07T00:15:49.407Z,2
2018-12-07T00:17:01.713Z,1.5
2018-12-07T00:18:13.802Z,2.9
2018-12-07T00:19:26.099Z,1
2018-12-07T00:20:38.126Z,3
2018-12-07T00:21:50.367Z,1.5
2018-12-07T00:23:02.555Z,1.4
2018-12-07T00:24:14.741Z,1.8
2018-12-07T00:25:26.880Z,1.4
2018-12-07T00:26:39.193Z,1.8
2018-12-07T00:27:51.335Z,3.1
2018-12-07T00:29:03.549Z,3.1
2018-12-07T00:30:15.716Z,1.4
2018-12-07T00:31:28.011Z,1.1
2018-12-07T00:32:40.116Z,1.6
2018-12-07T00:33:52.270Z,1.9
2018-12-07T00:35:04.516Z,2
2018-12-07T00:36:16.714Z,2.6
2018-12-07T00:37:28.889Z,2.2
2018-12-07T00:38:41.025Z,2.3
2018-12-07T00:39:53.195Z,4.6
2018-12-07T00:41:05.406Z,4.6
2018-12-07T00:42:17.653Z,2.6
2018-12-07T00:43:29.862Z,2.4
2018-12-07T00:44:41.965Z,2.9
2018-12-07T00:45:54.273Z,1.7
2018-12-07T00:47:06.542Z,2.4
2018-12-07T00:48:18.689Z,1.6
2018-12-07T00:49:30.824Z,2.3
2018-12-07T00:50:43.107Z,3.2
2018-12-07T00:51:55.202Z,2.5
2018-12-07T00:53:07.492Z,2.2
2018-12-07T00:54:19.597Z,2.1
2018-12-07T00:55:31.716Z,1.9
2018-12-07T00:56:43.981Z,1.8
2018-12-07T00:57:56.168Z,2.4
2018-12-07T00:59:08.459Z,1.6
2018-12-07T01:00:20.623Z,1.8
2018-12-07T01:01:32.767Z,1.5
2018-12-07T01:02:44.979Z,1.9
2018-12-07T01:03:57.076Z,2.4
2018-12-07T01:05:09.297Z,2
2018-12-07T01:06:21.458Z,1.3
2018-12-07T01:07:33.778Z,1.4
2018-12-07T01:08:45.841Z,2
2018-12-07T01:09:58.110Z,2
2018-12-07T01:11:10.397Z,3.5
2018-12-07T01:12:22.499Z,1.9
2018-12-07T01:13:34.625Z,1.6
2018-12-07T01:14:46.818Z,2.8
2018-12-07T01:15:59.058Z,2.1
2018-12-07T01:17:11.207Z,1.8
2018-12-07T01:18:23.483Z,1.4
2018-12-07T01:19:35.664Z,1.9
2018-12-07T01:20:47.790Z,1.4
2018-12-07T01:22:00.134Z,1.6
2018-12-07T01:23:12.255Z,3.5
2018-12-07T01:24:24.500Z,3.2
2018-12-07T01:25:36.624Z,1.8
2018-12-07T01:26:48.836Z,2.4
2018-12-07T01:28:01.011Z,1.2
2018-12-07T01:29:13.205Z,1.6
2018-12-07T01:30:25.494Z,1.9
2018-12-07T01:31:37.642Z,1.7
2018-12-07T01:32:49.794Z,1.8
2018-12-07T01:34:01.991Z,2.8
2018-12-07T01:35:14.266Z,3.3
2018-12-07T01:36:26.396Z,3.1
2018-12-07T01:37:38.574Z,2.5
2018-12-07T01:38:50.766Z,2.6
2018-12-07T01:40:02.881Z,3.4
2018-12-07T01:41:15.105Z,1.8
2018-12-07T01:42:27.336Z,2.5
2018-12-07T01:43:39.550Z,1.5
2018-12-07T01:44:51.731Z,2.5
2018-12-07T01:46:03.918Z,1.6
2018-12-07T01:47:16.130Z,1.4
2018-12-07T01:48:28.324Z,1.6
2018-12-07T01:49:40.422Z,2.1
2018-12-07T01:50:52.669Z,2.2
2018-12-07T01:52:04.807Z,1.7
2018-12-07T01:53:17.006Z,2.3
2018-12-07T01:54:29.193Z,1
2018-12-07T01:55:41.468Z,0.9
2018-12-07T01:56:53.587Z,1.4
2018-12-07T01:58:05.775Z,1.2
2018-12-07T01:59:20.121Z,1.2
2018-12-07T02:00:30.367Z,1
2018-12-07T02:01:42.363Z,1.8
2018-12-07T02:02:54.552Z,1.7
2018-12-07T02:04:06.829Z,1.4
2018-12-07T02:05:18.947Z,0.8
2018-12-07T02:06:31.229Z,1
2018-12-07T02:07:43.502Z,1.3
2018-12-07T02:08:55.606Z,1.7
2018-12-07T02:10:07.804Z,1.2
2018-12-07T02:11:19.996Z,1.3
2018-12-07T02:12:32.220Z,1
2018-12-07T02:13:44.371Z,1.3
2018-12-07T02:14:56.570Z,2.7
2018-12-07T02:16:08.755Z,1.9
2018-12-07T02:17:20.877Z,1.3
2018-12-07T02:18:33.155Z,2
2018-12-07T02:19:45.335Z,1.1
2018-12-07T02:20:57.533Z,0.9
2018-12-07T02:22:09.750Z,1.3
2018-12-07T02:23:21.930Z,1.7
2018-12-07T02:24:34.041Z,1
2018-12-07T02:25:46.313Z,2.4
2018-12-07T02:26:58.526Z,1.4
2018-12-07T02:28:10.784Z,1
2018-12-07T02:29:22.820Z,1.1
2018-12-07T02:30:35.086Z,1.8
2018-12-07T02:31:47.274Z,0.9
2018-12-07T02:32:59.905Z,1.9
2018-12-07T02:34:11.613Z,1.2
2018-12-07T02:35:23.879Z,1
2018-12-07T02:36:36.064Z,1.5
2018-12-07T02:37:48.254Z,1.8
2018-12-07T02:39:00.455Z,1.1
2018-12-07T02:40:12.632Z,1.7
2018-12-07T02:41:24.754Z,2.2
2018-12-07T02:42:36.970Z,1.3
2018-12-07T02:43:49.253Z,1.5
2018-12-07T02:45:01.335Z,1.6
2018-12-07T02:46:14.864Z,1.7
2018-12-07T02:47:25.849Z,2.1
2018-12-07T02:48:38.019Z,1.2
2018-12-07T02:49:50.112Z,1.3
2018-12-07T02:51:02.403Z,2.3
2018-12-07T02:52:14.581Z,2.9
2018-12-07T02:53:26.689Z,1.5
2018-12-07T02:54:38.906Z,2.7
2018-12-07T02:55:51.152Z,1.9
2018-12-07T02:57:03.341Z,0.8
2018-12-07T02:58:16.251Z,1.2
2018-12-07T02:59:27.685Z,2.1
2018-12-07T03:00:39.935Z,1.2
2018-12-07T03:01:52.112Z,1.5
2018-12-07T03:03:04.309Z,1.6
2018-12-07T03:04:16.513Z,1.9
2018-12-07T03:05:28.778Z,1.9
2018-12-07T03:06:40.824Z,2.5
2018-12-07T03:07:53.105Z,1.8
2018-12-07T03:09:05.199Z,1.6
2018-12-07T03:10:17.400Z,1.1
2018-12-07T03:11:29.694Z,1.6
2018-12-07T03:12:41.812Z,2.2
2018-12-07T03:13:53.983Z,2.1
2018-12-07T03:15:06.169Z,1
2018-12-07T03:16:18.366Z,2
2018-12-07T03:17:30.662Z,1.2
2018-12-07T03:18:42.750Z,1.5
2018-12-07T03:19:55.042Z,1.2
2018-12-07T03:21:07.244Z,1.8
2018-12-07T03:22:19.492Z,1.4
2018-12-07T03:23:31.752Z,2
2018-12-07T03:24:43.760Z,2.3
2018-12-07T03:25:56.136Z,2
2018-12-07T03:27:08.223Z,1.3
2018-12-07T03:28:20.401Z,2.5
2018-12-07T03:29:32.569Z,2.6
2018-12-07T03:30:44.728Z,2.9
2018-12-07T03:31:56.896Z,3.2
2018-12-07T03:33:09.167Z,3
2018-12-07T03:34:21.286Z,3.1
2018-12-07T03:35:34.091Z,3
2018-12-07T03:36:45.753Z,1.9
2018-12-07T03:37:57.942Z,2.1
2018-12-07T03:39:10.062Z,4.2
2018-12-07T03:40:22.267Z,2.5
2018-12-07T03:41:34.518Z,6.1
2018-12-07T03:42:46.726Z,1.8
2018-12-07T03:43:58.911Z,2.5
2018-12-07T03:45:11.510Z,1.3
2018-12-07T03:46:23.238Z,1.8
2018-12-07T03:47:35.594Z,2.3
2018-12-07T03:48:47.626Z,3.1
2018-12-07T03:49:59.882Z,2.9
2018-12-07T03:51:12.155Z,3.9
2018-12-07T03:52:24.379Z,1.5
2018-12-07T03:53:36.415Z,2.1
2018-12-07T03:54:48.609Z,4.4
2018-12-07T03:56:00.880Z,3.6
2018-12-07T03:57:13.104Z,2.6
2018-12-07T03:58:25.370Z,1.9
2018-12-07T03:59:37.547Z,1.9
2018-12-07T04:00:50.656Z,2.1
2018-12-07T04:02:01.852Z,2.8
2018-12-07T04:03:14.059Z,2.9
2018-12-07T04:04:26.250Z,2.8
2018-12-07T04:05:38.440Z,2.6
2018-12-07T04:06:50.623Z,1.9
2018-12-07T04:08:02.829Z,3.2
2018-12-07T04:09:15.008Z,3.7
2018-12-07T04:10:27.308Z,3.4
2018-12-07T04:11:39.422Z,2.5
2018-12-07T04:12:51.600Z,2.9
2018-12-07T04:14:03.811Z,4.5
2018-12-07T04:15:16.107Z,2
2018-12-07T04:16:28.136Z,2.9
2018-12-07T04:17:40.297Z,4.3
2018-12-07T04:18:52.498Z,3
2018-12-07T04:20:04.964Z,2.6
2018-12-07T04:21:16.882Z,6
2018-12-07T04:22:29.101Z,3.1
2018-12-07T04:23:41.370Z,4.7
2018-12-07T04:24:53.568Z,2.2
2018-12-07T04:26:05.738Z,3.8
2018-12-07T04:27:17.951Z,4.9
2018-12-07T04:28:30.066Z,4.4
2018-12-07T04:29:42.348Z,5.3
2018-12-07T04:30:54.526Z,3
2018-12-07T04:32:06.663Z,4.3
2018-12-07T04:33:18.919Z,3.7
2018-12-07T04:34:31.208Z,2.7
2018-12-07T04:35:43.416Z,4.2
2018-12-07T04:36:55.426Z,3.8
2018-12-07T04:38:07.707Z,3.6
2018-12-07T04:39:19.919Z,6.2
2018-12-07T04:40:32.115Z,5.2
2018-12-07T04:41:44.307Z,4.6
2018-12-07T04:42:56.517Z,4.6
2018-12-07T04:44:08.668Z,6.3
2018-12-07T04:45:20.801Z,4.4
2018-12-07T04:46:33.091Z,5.3
2018-12-07T04:47:45.181Z,3.7
2018-12-07T04:48:57.474Z,3.2
2018-12-07T04:50:09.663Z,5.4
2018-12-07T04:51:21.765Z,4.3
2018-12-07T04:52:33.972Z,4
2018-12-07T04:53:46.257Z,8
2018-12-07T04:54:58.438Z,4.3
2018-12-07T04:56:10.633Z,5.7
2018-12-07T04:57:22.754Z,3.6
2018-12-07T04:58:35.093Z,7.8
2018-12-07T04:59:47.300Z,7
2018-12-07T05:00:59.343Z,8.2
2018-12-07T05:02:11.609Z,9.8
2018-12-07T05:03:23.790Z,4.9
2018-12-07T05:04:36.054Z,5.4
2018-12-07T05:05:48.188Z,4.2
2018-12-07T05:07:00.503Z,4.8
2018-12-07T05:08:12.647Z,4.5
2018-12-07T05:09:24.694Z,4
2018-12-07T05:10:36.905Z,5.4
2018-12-07T05:11:49.180Z,5.5
2018-12-07T05:13:01.288Z,7.3
2018-12-07T05:14:14.042Z,6.9
2018-12-07T05:15:25.846Z,6.3
2018-12-07T05:16:37.976Z,4.2
2018-12-07T05:17:50.081Z,6.8
2018-12-07T05:19:02.337Z,5.9
2018-12-07T05:20:14.520Z,6.8
2018-12-07T05:21:26.774Z,6.2
2018-12-07T05:22:38.936Z,7.5
2018-12-07T05:23:51.200Z,12.1
2018-12-07T05:25:03.236Z,6.7
2018-12-07T05:26:15.438Z,7.9
2018-12-07T05:27:27.615Z,6.4
2018-12-07T05:28:39.909Z,9.9
2018-12-07T05:29:52.117Z,11.8
2018-12-07T05:31:05.213Z,7.6
2018-12-07T05:32:16.414Z,6.6
2018-12-07T05:33:28.614Z,6.7
2018-12-07T05:34:40.885Z,10.5
2018-12-07T05:35:53.170Z,10.4
2018-12-07T05:37:05.281Z,8.2
2018-12-07T05:38:17.453Z,8.6
2018-12-07T05:39:29.654Z,8.1
2018-12-07T05:40:42.000Z,8.4
2018-12-07T05:41:54.038Z,11.6
2018-12-07T05:43:06.259Z,11.2
2018-12-07T05:44:18.552Z,11.8
2018-12-07T05:45:30.659Z,9.5
2018-12-07T05:46:42.842Z,12.2
2018-12-07T05:47:56.944Z,10
2018-12-07T05:49:07.221Z,8.8
2018-12-07T05:50:19.431Z,14.9
2018-12-07T05:51:31.555Z,12.3
2018-12-07T05:52:43.714Z,12.6
2018-12-07T05:53:56.023Z,8.4
2018-12-07T05:55:08.120Z,11.3
2018-12-07T05:56:20.407Z,16.2
2018-12-07T05:57:32.524Z,9.8
2018-12-07T05:58:44.733Z,9.7
2018-12-07T05:59:57.074Z,11.4
2018-12-07T06:01:09.091Z,10.5
2018-12-07T06:02:21.363Z,9.3
2018-12-07T06:03:33.543Z,11.2
2018-12-07T06:04:45.797Z,8.9
2018-12-07T06:05:58.527Z,7.8
2018-12-07T06:07:10.202Z,10.7
2018-12-07T06:08:22.331Z,8.6
2018-12-07T06:09:34.486Z,8.8
2018-12-07T06:10:46.652Z,10.2
2018-12-07T06:11:59.053Z,9.7
2018-12-07T06:13:11.112Z,8.9
2018-12-07T06:14:23.225Z,10.1
2018-12-07T06:15:35.506Z,10.8
2018-12-07T06:16:47.742Z,7.3
2018-12-07T06:17:59.902Z,11.2
2018-12-07T06:19:12.086Z,10.4
2018-12-07T06:20:24.402Z,7.8
2018-12-07T06:21:36.493Z,7.2
2018-12-07T06:22:48.710Z,7
2018-12-07T06:24:00.936Z,8.4
2018-12-07T06:25:13.138Z,10.2
2018-12-07T06:26:25.249Z,9.6
2018-12-07T06:27:37.458Z,9.6
2018-12-07T06:28:49.662Z,8.9
2018-12-07T06:30:01.966Z,9.8
2018-12-07T06:31:13.968Z,9.6
2018-12-07T06:32:26.178Z,11.5
2018-12-07T06:33:38.346Z,9.8
2018-12-07T06:34:50.738Z,9.5
2018-12-07T06:36:02.923Z,9.4
2018-12-07T06:37:15.011Z,10.7
2018-12-07T06:38:27.155Z,12.6
2018-12-07T06:39:39.343Z,8.8
2018-12-07T06:40:51.526Z,9.3
2018-12-07T06:42:03.789Z,10.7
2018-12-07T06:43:15.914Z,10
2018-12-07T06:44:28.113Z,8.5
2018-12-07T06:45:40.301Z,10.5
2018-12-07T06:46:52.601Z,9.9
2018-12-07T06:48:04.788Z,10.2
2018-12-07T06:49:16.969Z,8.9
2018-12-07T06:50:29.117Z,7.7
2018-12-07T06:51:41.308Z,7.6
2018-12-07T06:52:53.568Z,8.1
2018-12-07T06:54:05.799Z,7.9
2018-12-07T06:55:17.867Z,11.3
2018-12-07T06:56:30.069Z,10.8
2018-12-07T06:57:42.325Z,12
2018-12-07T06:58:54.453Z,12.3
2018-12-07T07:00:06.740Z,8.3
2018-12-07T07:01:20.995Z,10.7
2018-12-07T07:02:31.126Z,10.3
2018-12-07T07:03:43.242Z,10.4
2018-12-07T07:04:55.432Z,10
2018-12-07T07:06:07.666Z,8
2018-12-07T07:07:19.901Z,9.9
2018-12-07T07:08:32.127Z,12.1
2018-12-07T07:09:44.230Z,11.4
2018-12-07T07:10:56.510Z,10.2
2018-12-07T07:12:08.807Z,8.8
2018-12-07T07:13:20.905Z,8.5
2018-12-07T07:14:33.107Z,8.2
2018-12-07T07:15:45.204Z,7.3
2018-12-07T07:16:57.458Z,11.7
2018-12-07T07:18:09.693Z,10.3
2018-12-07T07:19:21.798Z,8.4
2018-12-07T07:20:33.973Z,7.5
2018-12-07T07:21:46.241Z,11.3
2018-12-07T07:22:58.433Z,9.9
2018-12-07T07:24:10.773Z,6.3
2018-12-07T07:25:22.869Z,7.5
2018-12-07T07:26:34.986Z,6.6
2018-12-07T07:27:47.207Z,7.7
2018-12-07T07:28:59.350Z,8.5
2018-12-07T07:30:11.526Z,8.5
2018-12-07T07:31:23.805Z,7.3
2018-12-07T07:32:35.994Z,8.8
2018-12-07T07:33:48.125Z,5.6
2018-12-07T07:35:00.411Z,5.3
2018-12-07T07:36:12.593Z,8.8
2018-12-07T07:37:24.782Z,8.6
2018-12-07T07:38:37.042Z,8.4
2018-12-07T07:39:49.177Z,6.3
2018-12-07T07:41:01.368Z,6.3
2018-12-07T07:42:13.569Z,4.6
2018-12-07T07:43:25.748Z,5.9
2018-12-07T07:44:37.932Z,5.7
2018-12-07T07:45:50.150Z,8.7
2018-12-07T07:47:02.343Z,5.5
2018-12-07T07:48:14.548Z,7.6
2018-12-07T07:49:26.774Z,6.1
2018-12-07T07:50:38.961Z,6.3
2018-12-07T07:51:51.067Z,5.6
2018-12-07T07:53:03.243Z,3.4
2018-12-07T07:54:15.563Z,6.6
2018-12-07T07:55:27.711Z,5.1
2018-12-07T07:56:39.903Z,7.6
2018-12-07T07:57:52.041Z,6.4
2018-12-07T07:59:04.285Z,5
2018-12-07T08:00:16.590Z,5.9
2018-12-07T08:01:28.780Z,3.5
2018-12-07T08:02:40.901Z,4.3
2018-12-07T08:03:53.084Z,2.5
2018-12-07T08:05:05.209Z,6.3
2018-12-07T08:06:17.567Z,4.9
2018-12-07T08:07:29.910Z,5.7
2018-12-07T08:08:41.820Z,3.3
2018-12-07T08:09:54.056Z,4.1
2018-12-07T08:11:06.352Z,4.6
2018-12-07T08:12:18.714Z,2.2
2018-12-07T08:13:30.712Z,3.7
2018-12-07T08:14:42.849Z,2.7
2018-12-07T08:15:55.055Z,2.6
2018-12-07T08:17:07.276Z,3.2
2018-12-07T08:18:20.777Z,5
2018-12-07T08:19:31.578Z,3.5
2018-12-07T08:20:43.801Z,3.3
2018-12-07T08:21:56.139Z,5.2
2018-12-07T08:23:08.227Z,3.6
2018-12-07T08:25:32.700Z,2.9
2018-12-07T08:26:44.813Z,3.7
2018-12-07T08:27:56.933Z,5.1
2018-12-07T08:29:09.095Z,3.8
2018-12-07T08:30:21.496Z,4.1
2018-12-07T08:31:33.563Z,2.7
2018-12-07T08:32:45.789Z,4.2
2018-12-07T08:33:57.967Z,2.7
2018-12-07T08:35:10.151Z,3.3
2018-12-07T08:36:22.473Z,2.3
2018-12-07T08:37:34.465Z,4.9
2018-12-07T08:38:46.774Z,3.1
2018-12-07T08:39:59.014Z,3.5
2018-12-07T08:41:11.070Z,2.4
2018-12-07T08:42:23.275Z,2
2018-12-07T08:43:35.535Z,3.6
2018-12-07T08:44:47.741Z,2.3
2018-12-07T08:45:59.915Z,1.8
2018-12-07T08:47:12.057Z,2
2018-12-07T08:48:24.389Z,3.1
2018-12-07T08:49:36.430Z,2.1
2018-12-07T08:50:48.628Z,1.3
2018-12-07T08:52:00.911Z,1.6
2018-12-07T08:53:13.027Z,3.1
2018-12-07T08:54:25.386Z,1.8
2018-12-07T08:55:37.473Z,2
2018-12-07T08:56:49.691Z,2.5
2018-12-07T08:58:01.869Z,1.4
2018-12-07T08:59:14.000Z,3.2
2018-12-07T09:00:26.528Z,1.8
2018-12-07T09:01:38.447Z,1.7
2018-12-07T09:02:52.445Z,2.6
2018-12-07T09:04:02.841Z,1.4
2018-12-07T09:05:14.960Z,2.8
2018-12-07T09:06:27.164Z,2.4
2018-12-07T09:07:39.368Z,2.3
2018-12-07T09:08:51.553Z,2
2018-12-07T09:10:03.819Z,2.6
2018-12-07T09:11:16.003Z,1.4
2018-12-07T09:12:28.221Z,2.4
2018-12-07T09:13:40.424Z,2.9
2018-12-07T09:14:52.655Z,2.1
2018-12-07T09:16:04.791Z,1.3
2018-12-07T09:17:16.915Z,1.9
2018-12-07T09:18:29.109Z,2.3
2018-12-07T09:19:41.388Z,2.7
2018-12-07T09:20:53.626Z,1.9
2018-12-07T09:22:05.776Z,1.4
2018-12-07T09:23:19.953Z,2.7
2018-12-07T09:24:30.099Z,1.4
2018-12-07T09:25:42.435Z,2.1
2018-12-07T09:26:54.564Z,1.3
2018-12-07T09:28:06.673Z,2.7
2018-12-07T09:29:18.952Z,1.9
2018-12-07T09:30:31.223Z,1.7
2018-12-07T09:31:43.353Z,1.6
2018-12-07T09:32:55.693Z,2
2018-12-07T09:34:07.747Z,1.3
2018-12-07T09:35:19.928Z,1.8
2018-12-07T09:36:32.246Z,1.5
2018-12-07T09:37:44.326Z,2.7
2018-12-07T09:38:56.477Z,2.3
2018-12-07T09:40:08.640Z,1.5
2018-12-07T09:41:20.883Z,2.1
2018-12-07T09:42:33.020Z,2.4
2018-12-07T09:43:45.297Z,1.3
2018-12-07T09:44:57.527Z,2.1
2018-12-07T09:46:09.625Z,1.6
2018-12-07T09:47:22.015Z,1.6
2018-12-07T09:48:35.134Z,1.2
2018-12-07T09:49:46.333Z,2.8
2018-12-07T09:50:58.489Z,1.9
2018-12-07T09:52:10.826Z,2
2018-12-07T09:53:22.955Z,1.5
2018-12-07T09:54:34.994Z,1.5
2018-12-07T09:55:47.231Z,2
2018-12-07T09:56:59.376Z,1.7
2018-12-07T09:58:11.637Z,1.6
2018-12-07T09:59:23.822Z,1.7
2018-12-07T10:00:36.075Z,1.9
2018-12-07T10:01:48.146Z,1.8
2018-12-07T10:03:00.434Z,2.4
2018-12-07T10:04:12.698Z,1.3
2018-12-07T10:05:24.737Z,1.8
2018-12-07T10:06:36.999Z,1.9
2018-12-07T10:07:49.130Z,1.3
2018-12-07T10:09:01.391Z,1.4
2018-12-07T10:10:13.535Z,2.4
2018-12-07T10:11:25.879Z,0.9
2018-12-07T10:12:38.077Z,1.2
2018-12-07T10:13:50.264Z,1.1
2018-12-07T10:15:02.296Z,1.4
2018-12-07T10:16:14.622Z,1.8
2018-12-07T10:17:26.786Z,1.1
2018-12-07T10:18:38.987Z,2
2018-12-07T10:19:51.155Z,2.1
2018-12-07T10:21:03.456Z,3
2018-12-07T10:22:17.386Z,1.3
2018-12-07T10:23:27.737Z,0.9
2018-12-07T10:24:40.074Z,1.3
2018-12-07T10:25:52.053Z,2.9
2018-12-07T10:27:04.393Z,1.5
2018-12-07T10:28:16.610Z,1.3
2018-12-07T10:29:28.782Z,1.8
2018-12-07T10:30:40.989Z,1
2018-12-07T10:31:53.099Z,1.9
2018-12-07T10:33:05.225Z,1.1
2018-12-07T10:34:17.567Z,1.9
2018-12-07T10:35:29.633Z,0.9
2018-12-07T10:36:42.029Z,0.7
2018-12-07T10:37:55.247Z,1.5
2018-12-07T10:39:06.272Z,2.3
2018-12-07T10:40:18.525Z,0.8
2018-12-07T10:41:30.607Z,2.7
2018-12-07T10:42:42.873Z,0.7
2018-12-07T10:43:55.055Z,1.6
2018-12-07T10:45:07.292Z,0.7
2018-12-07T10:46:19.458Z,0.9
2018-12-07T10:47:31.577Z,1.1
2018-12-07T10:48:44.097Z,0.6
2018-12-07T10:49:56.164Z,0.6
2018-12-07T10:51:08.461Z,0.6
2018-12-07T10:52:20.449Z,1.1
2018-12-07T10:53:32.719Z,0.8
2018-12-07T10:54:44.803Z,1.3
2018-12-07T10:55:57.079Z,0.6
2018-12-07T10:57:10.970Z,0.5
2018-12-07T10:58:21.325Z,2.1
2018-12-07T10:59:33.597Z,1.3
2018-12-07T11:00:45.949Z,1.6
2018-12-07T11:01:57.939Z,0.8
2018-12-07T11:03:10.185Z,1.3
2018-12-07T11:04:22.390Z,1.5
2018-12-07T11:05:34.579Z,1
2018-12-07T11:06:46.691Z,0.8
2018-12-07T11:07:58.971Z,0.5
2018-12-07T11:09:11.085Z,0.5
2018-12-07T11:10:23.273Z,0.5
2018-12-07T11:11:35.553Z,1.3
2018-12-07T11:12:47.913Z,1.4
2018-12-07T11:13:59.874Z,0.7
2018-12-07T11:15:12.250Z,1.2
2018-12-07T11:16:24.336Z,0.7
2018-12-07T11:17:36.441Z,1.5
2018-12-07T11:18:48.719Z,0.7
2018-12-07T11:20:00.926Z,0.5
2018-12-07T11:21:13.086Z,0.6
2018-12-07T11:22:25.246Z,1.2
2018-12-07T11:23:37.495Z,0.5
2018-12-07T11:24:49.738Z,0.8
2018-12-07T11:26:01.837Z,0.7
2018-12-07T11:27:14.013Z,0.5
2018-12-07T11:28:26.226Z,0.6
2018-12-07T11:29:38.507Z,0.8
2018-12-07T11:30:51.820Z,0.7
2018-12-07T11:32:02.867Z,0.4
2018-12-07T11:33:15.001Z,0.6
2018-12-07T11:34:27.290Z,0.7
2018-12-07T11:35:39.480Z,0.7
2018-12-07T11:36:51.764Z,0.4
2018-12-07T11:38:03.778Z,1.7
2018-12-07T11:39:16.034Z,1.4
2018-12-07T11:40:28.240Z,0.9
2018-12-07T11:41:40.534Z,0.5
2018-12-07T11:42:52.575Z,0.4
2018-12-07T11:44:04.826Z,1.5
2018-12-07T11:45:17.081Z,0.4
2018-12-07T11:46:29.205Z,1.1
2018-12-07T11:47:41.332Z,0.5
2018-12-07T11:48:53.714Z,0.7
2018-12-07T11:50:05.938Z,0.8
2018-12-07T11:51:18.010Z,0.5
2018-12-07T11:52:30.190Z,0.5
2018-12-07T11:53:42.320Z,0.4
2018-12-07T11:54:54.504Z,0.6
2018-12-07T11:56:06.802Z,1.1
2018-12-07T11:57:18.916Z,0.5
2018-12-07T11:58:31.170Z,0.4
2018-12-07T11:59:43.372Z,0.5
2018-12-07T12:00:55.707Z,0.9
2018-12-07T12:02:07.742Z,1.9
2018-12-07T12:03:19.866Z,0.9
2018-12-07T12:04:32.185Z,2.3
2018-12-07T12:05:44.274Z,1
2018-12-07T12:06:56.528Z,1.7
2018-12-07T12:08:08.647Z,1.2
2018-12-07T12:09:20.944Z,0.9
2018-12-07T12:10:33.130Z,0.6
2018-12-07T12:11:45.233Z,0.7
2018-12-07T12:12:57.538Z,0.4
2018-12-07T12:14:09.647Z,0.7
2018-12-07T12:15:21.813Z,0.7
2018-12-07T12:16:34.103Z,0.4
2018-12-07T12:17:46.303Z,0.5
2018-12-07T12:18:58.418Z,0.5
2018-12-07T12:20:10.617Z,1.2
2018-12-07T12:21:22.873Z,0.4
2018-12-07T12:22:35.105Z,0.6
2018-12-07T12:23:47.207Z,0.8
2018-12-07T12:24:59.578Z,0.4
2018-12-07T12:26:11.655Z,0.8
2018-12-07T12:27:23.845Z,0.9
2018-12-07T12:28:36.146Z,0.7
2018-12-07T12:29:48.254Z,1.3
2018-12-07T12:31:00.456Z,0.4
2018-12-07T12:32:12.619Z,0.4
2018-12-07T12:33:24.877Z,1.3
2018-12-07T12:34:36.947Z,0.6
2018-12-07T12:35:49.369Z,1.7
2018-12-07T12:37:01.429Z,0.6
2018-12-07T12:38:13.727Z,0.4
2018-12-07T12:39:25.852Z,0.5
2018-12-07T12:40:37.995Z,0.4
2018-12-07T12:41:50.185Z,0.4
2018-12-07T12:43:02.406Z,0.7
2018-12-07T12:44:14.637Z,0.4
2018-12-07T12:45:26.861Z,0.3
2018-12-07T12:46:38.957Z,0.4
2018-12-07T12:47:51.676Z,0.7
2018-12-07T12:49:03.450Z,0.4
2018-12-07T12:50:15.560Z,0.5
2018-12-07T12:51:27.706Z,0.9
2018-12-07T12:52:39.886Z,0.6
2018-12-07T12:53:52.131Z,0.5
2018-12-07T12:55:04.291Z,0.8
2018-12-07T12:56:16.554Z,1
2018-12-07T12:57:28.650Z,0.3
2018-12-07T12:58:40.879Z,0.7
2018-12-07T12:59:53.151Z,0.9
2018-12-07T13:01:05.410Z,0.4
2018-12-07T13:02:17.493Z,1
2018-12-07T13:03:29.609Z,0.8
2018-12-07T13:04:41.875Z,0.6
2018-12-07T13:05:54.120Z,0.6
2018-12-07T13:07:06.288Z,0.3
2018-12-07T13:08:18.385Z,1.1
2018-12-07T13:09:30.612Z,0.7
2018-12-07T13:10:44.319Z,0.8
2018-12-07T13:11:55.131Z,0.3
2018-12-07T13:13:07.319Z,1.6
2018-12-07T13:14:19.378Z,1.3
2018-12-07T13:15:31.630Z,0.3
2018-12-07T13:16:43.830Z,2.7
2018-12-07T13:17:55.987Z,0.4
2018-12-07T13:19:08.266Z,0.8
2018-12-07T13:20:20.451Z,0.9
2018-12-07T13:21:32.522Z,1.4
2018-12-07T13:22:44.802Z,0.3
2018-12-07T13:23:57.073Z,0.5
2018-12-07T13:25:09.186Z,0.7
2018-12-07T13:26:21.399Z,0.3
2018-12-07T13:27:33.650Z,0.6
2018-12-07T13:28:45.876Z,0.7
2018-12-07T13:29:57.884Z,0.4
2018-12-07T13:31:10.225Z,0.7
2018-12-07T13:32:22.338Z,0.5
2018-12-07T13:33:34.570Z,1
2018-12-07T13:34:46.734Z,0.6
2018-12-07T13:35:58.907Z,0.4
2018-12-07T13:37:11.133Z,0.6
2018-12-07T13:38:23.312Z,0.6
2018-12-07T13:39:35.501Z,2.7
2018-12-07T13:40:47.786Z,0.3
2018-12-07T13:41:59.900Z,0.4
2018-12-07T13:43:12.080Z,1.1
2018-12-07T13:44:24.196Z,0.4
2018-12-07T13:45:36.382Z,1.1
2018-12-07T13:46:48.674Z,1.3
2018-12-07T13:48:00.855Z,0.7
2018-12-07T13:49:13.089Z,0.7
2018-12-07T13:50:25.358Z,0.6
2018-12-07T13:51:37.441Z,0.8
2018-12-07T13:52:49.657Z,0.4
2018-12-07T13:54:01.853Z,0.4
2018-12-07T13:55:14.034Z,0.4
2018-12-07T13:56:26.248Z,0.5
2018-12-07T13:57:38.330Z,0.5
2018-12-07T13:58:50.533Z,0.4
2018-12-07T14:00:02.904Z,0.4
2018-12-07T14:01:15.008Z,0.4
2018-12-07T14:02:27.377Z,0.3
2018-12-07T14:03:39.392Z,0.5
2018-12-07T14:04:51.690Z,0.3
2018-12-07T14:06:03.840Z,0.3
2018-12-07T14:07:15.909Z,0.5
2018-12-07T14:08:28.090Z,0.3
2018-12-07T14:09:40.345Z,0.5
2018-12-07T14:10:52.464Z,0.5
2018-12-07T14:12:04.661Z,0.5
2018-12-07T14:13:17.006Z,0.9
2018-12-07T14:14:29.125Z,0.3
2018-12-07T14:15:41.319Z,0.4
2018-12-07T14:16:53.563Z,0.5
2018-12-07T14:18:05.651Z,0.9
2018-12-07T14:19:17.881Z,0.9
2018-12-07T14:20:30.031Z,0.4
2018-12-07T14:21:42.286Z,0.3
2018-12-07T14:22:54.492Z,0.4
2018-12-07T14:24:06.604Z,0.4
2018-12-07T14:25:18.960Z,0.3
2018-12-07T14:26:30.982Z,0.4
2018-12-07T14:27:43.167Z,0.5
2018-12-07T14:28:55.457Z,1.2
2018-12-07T14:30:07.618Z,0.4
2018-12-07T14:31:19.815Z,0.4
2018-12-07T14:32:31.978Z,0.6
2018-12-07T14:33:44.220Z,0.4
2018-12-07T14:34:56.443Z,0.8
2018-12-07T14:36:08.599Z,0.9
2018-12-07T14:37:20.828Z,0.3
2018-12-07T14:38:32.980Z,0.4
2018-12-07T14:39:45.182Z,0.4
2018-12-07T14:40:57.309Z,1.9
2018-12-07T14:42:09.563Z,0.3
2018-12-07T14:43:21.776Z,0.4
2018-12-07T14:44:33.873Z,0.4
2018-12-07T14:45:46.163Z,0.5
2018-12-07T14:46:58.253Z,0.4
2018-12-07T14:48:10.527Z,0.4
2018-12-07T14:49:22.725Z,1.6
2018-12-07T14:50:37.973Z,0.4
2018-12-07T14:51:47.134Z,0.3
2018-12-07T14:52:59.316Z,0.6
2018-12-07T14:54:11.528Z,0.5
2018-12-07T14:55:23.713Z,0.3
2018-12-07T14:56:35.820Z,0.4
2018-12-07T14:57:48.112Z,0.4
2018-12-07T14:59:00.198Z,1
2018-12-07T15:00:12.389Z,0.9
2018-12-07T15:01:24.716Z,0.4
2018-12-07T15:02:37.016Z,1
2018-12-07T15:03:49.070Z,0.7
2018-12-07T15:05:01.349Z,0.9
2018-12-07T15:06:13.435Z,1.4
2018-12-07T15:07:25.629Z,0.7
2018-12-07T15:08:37.848Z,0.5
2018-12-07T15:09:50.060Z,0.3
2018-12-07T15:11:02.218Z,0.7
2018-12-07T15:12:14.506Z,0.4
2018-12-07T15:13:26.722Z,0.8
2018-12-07T15:14:38.872Z,0.6
2018-12-07T15:15:50.977Z,1.1
2018-12-07T15:17:03.248Z,0.7
2018-12-07T15:18:15.325Z,0.5
2018-12-07T15:19:27.572Z,0.8
2018-12-07T15:20:39.769Z,0.8
2018-12-07T15:21:51.888Z,1.4
2018-12-07T15:23:04.079Z,1.7
2018-12-07T15:24:16.348Z,0.5
2018-12-07T15:25:28.636Z,1.2
2018-12-07T15:26:40.771Z,0.7
2018-12-07T15:27:52.847Z,0.5
2018-12-07T15:29:05.129Z,1.2
2018-12-07T15:30:17.313Z,0.9
2018-12-07T15:31:29.526Z,0.5
2018-12-07T15:32:41.826Z,0.7
2018-12-07T15:33:57.528Z,1.2
2018-12-07T15:35:06.526Z,1.5
2018-12-07T15:36:18.290Z,1.3
2018-12-07T15:37:30.517Z,0.5
2018-12-07T15:38:42.897Z,4.4
2018-12-07T15:39:54.868Z,1.5
2018-12-07T15:41:07.068Z,0.5
2018-12-07T15:42:19.249Z,2.5
2018-12-07T15:43:31.385Z,1.3
2018-12-07T15:44:43.578Z,1.1
2018-12-07T15:45:55.851Z,1.3
2018-12-07T15:47:07.953Z,0.9
2018-12-07T15:48:20.272Z,2.3
2018-12-07T15:49:32.536Z,2
2018-12-07T15:50:44.648Z,0.8
2018-12-07T15:51:56.747Z,0.8
2018-12-07T15:53:09.007Z,1.2
2018-12-07T15:54:21.221Z,1.1
2018-12-07T15:55:33.373Z,1.8
2018-12-07T15:56:45.554Z,0.7
2018-12-07T15:57:57.689Z,1.3
2018-12-07T15:59:10.036Z,1
2018-12-07T16:00:22.100Z,0.6
2018-12-07T16:01:35.493Z,1.4
2018-12-07T16:02:46.482Z,2
2018-12-07T16:03:58.680Z,0.9
2018-12-07T16:05:10.988Z,3.2
2018-12-07T16:06:23.153Z,1.8
2018-12-07T16:07:35.397Z,0.9
2018-12-07T16:08:47.686Z,0.7
2018-12-07T16:09:59.624Z,1.2
2018-12-07T16:11:11.894Z,1.8
2018-12-07T16:12:24.110Z,0.6
2018-12-07T16:13:38.299Z,0.7
2018-12-07T16:14:48.403Z,0.6
2018-12-07T16:16:00.755Z,0.6
2018-12-07T16:17:12.909Z,1.1
2018-12-07T16:18:24.994Z,0.5
2018-12-07T16:19:37.268Z,0.8
2018-12-07T16:20:49.487Z,1.2
2018-12-07T16:22:01.651Z,0.6
2018-12-07T16:23:13.843Z,0.9
2018-12-07T16:24:26.088Z,1.2
2018-12-07T16:25:38.250Z,0.7
2018-12-07T16:26:50.457Z,1.1
2018-12-07T16:28:02.606Z,0.9
2018-12-07T16:29:14.809Z,1.9
2018-12-07T16:30:27.211Z,3
2018-12-07T16:31:39.204Z,1
2018-12-07T16:32:51.437Z,1.1
2018-12-07T16:34:03.545Z,2.5
2018-12-07T16:35:15.798Z,1.7
2018-12-07T16:36:27.916Z,4.1
2018-12-07T16:37:40.320Z,0.7